Time;durP1;ratioP1;P1;durP2;ratioP2;P2;SDS_P1;SDS_P2;PMS_P1;PMS_P2;Temp;Humidity;BMP_temperature;BMP_pressure;BME280_temperature;BME280_humidity;BME280_pressure;Samples;Min_cycle;Max_cycle;Signal;HPM_P1;HPM_P2
2021/03/07 00:01:27;;;;;;;16.87;8.70;;;;;;;;;;5054909;28;20441;-82
2021/03/07 00:03:52;;;;;;;17.13;10.07;;;;;;;;;;5053789;28;20074;-82
2021/03/07 00:06:17;;;;;;;18.50;9.57;;;;;;;;;;5054928;28;20029;-82
2021/03/07 00:08:42;;;;;;;20.60;9.87;;;;;;;;;;5052148;28;20052;-82
2021/03/07 00:11:07;;;;;;;18.80;9.03;;;;;;;;;;5054438;28;20373;-82
2021/03/07 00:13:33;;;;;;;25.47;10.03;;;;;;;;;;5053384;28;20028;-82
2021/03/07 00:15:58;;;;;;;15.53;8.80;;;;;;;;;;5053171;28;20063;-82
2021/03/07 00:18:23;;;;;;;17.43;9.53;;;;;;;;;;5054446;28;20033;-82
2021/03/07 00:20:48;;;;;;;16.53;8.80;;;;;;;;;;5053952;28;20427;-82
2021/03/07 00:23:13;;;;;;;20.70;9.83;;;;;;;;;;5053185;28;20023;-82
2021/03/07 00:25:38;;;;;;;18.97;9.17;;;;;;;;;;5053278;28;20020;-82
2021/03/07 00:28:04;;;;;;;20.33;9.30;;;;;;;;;;5045386;28;20009;-82
2021/03/07 00:30:29;;;;;;;16.07;8.90;;;;;;;;;;5052632;28;20025;-82
2021/03/07 00:32:54;;;;;;;17.03;9.07;;;;;;;;;;5052930;28;20040;-82
2021/03/07 00:35:19;;;;;;;17.70;8.93;;;;;;;;;;5053140;28;20038;-82
2021/03/07 00:37:45;;;;;;;18.07;8.80;;;;;;;;;;5054236;28;20096;-82
2021/03/07 00:40:10;;;;;;;17.53;9.30;;;;;;;;;;5054221;28;20457;-82
2021/03/07 00:42:38;;;;;;;18.73;8.37;;;;;;;;;;5053010;28;20031;-82
2021/03/07 00:45:05;;;;;;;17.30;8.40;;;;;;;;;;5054036;28;20033;-82
2021/03/07 00:47:30;;;;;;;17.73;9.07;;;;;;;;;;5052874;28;20021;-82
2021/03/07 00:49:55;;;;;;;18.27;8.67;;;;;;;;;;5052503;28;20078;-82
2021/03/07 00:52:21;;;;;;;21.43;9.10;;;;;;;;;;5052521;28;20104;-82
2021/03/07 00:54:46;;;;;;;17.20;10.07;;;;;;;;;;5054101;28;20074;-82
2021/03/07 00:57:11;;;;;;;17.43;8.87;;;;;;;;;;5053814;28;20013;-82
2021/03/07 00:59:36;;;;;;;18.10;9.07;;;;;;;;;;5052431;28;20079;-82
2021/03/07 01:02:01;;;;;;;18.00;9.07;;;;;;;;;;5052170;28;20035;-82
2021/03/07 01:04:27;;;;;;;18.67;9.63;;;;;;;;;;5052034;28;20368;-82
2021/03/07 01:06:52;;;;;;;20.93;9.40;;;;;;;;;;5052498;28;20104;-82
2021/03/07 01:09:17;;;;;;;13.93;9.00;;;;;;;;;;5052206;28;20482;-83
2021/03/07 01:11:42;;;;;;;23.60;9.17;;;;;;;;;;5052213;28;20510;-82
2021/03/07 01:14:08;;;;;;;17.33;8.97;;;;;;;;;;5052151;28;20041;-82
2021/03/07 01:16:33;;;;;;;17.63;8.20;;;;;;;;;;5053501;28;20479;-82
2021/03/07 01:18:58;;;;;;;16.60;9.30;;;;;;;;;;5052159;28;20027;-82
2021/03/07 01:21:23;;;;;;;16.83;8.60;;;;;;;;;;5051328;28;20120;-82
2021/03/07 01:23:49;;;;;;;20.53;9.27;;;;;;;;;;5052235;28;20021;-83
2021/03/07 01:26:14;;;;;;;20.93;9.70;;;;;;;;;;5053252;28;20100;-83
2021/03/07 01:28:39;;;;;;;18.83;9.37;;;;;;;;;;5052156;28;20313;-83
2021/03/07 01:31:04;;;;;;;17.97;9.47;;;;;;;;;;5051948;28;20163;-82
2021/03/07 01:33:30;;;;;;;16.53;8.37;;;;;;;;;;5052238;28;20210;-83
2021/03/07 01:35:55;;;;;;;20.13;10.20;;;;;;;;;;5052431;28;20098;-83
2021/03/07 01:38:20;;;;;;;19.43;9.63;;;;;;;;;;5052103;28;20472;-83
2021/03/07 01:40:52;;;;;;;18.47;9.63;;;;;;;;;;5051664;28;20052;-83
2021/03/07 01:43:18;;;;;;;16.20;8.50;;;;;;;;;;5051717;28;20013;-83
2021/03/07 01:45:44;;;;;;;14.37;8.67;;;;;;;;;;5051652;28;20033;-83
2021/03/07 01:48:10;;;;;;;18.90;9.23;;;;;;;;;;5051825;28;20021;-83
2021/03/07 01:50:38;;;;;;;20.20;9.53;;;;;;;;;;5050920;28;20036;-83
2021/03/07 01:53:03;;;;;;;17.33;9.47;;;;;;;;;;5050716;28;20103;-83
2021/03/07 01:55:31;;;;;;;21.23;10.67;;;;;;;;;;5051723;28;20132;-83
2021/03/07 01:58:17;;;;;;;17.20;9.33;;;;;;;;;;5050052;28;20426;-82
2021/03/07 02:00:43;;;;;;;19.23;9.47;;;;;;;;;;5050624;28;20024;-83
2021/03/07 02:03:08;;;;;;;16.53;9.60;;;;;;;;;;5050755;28;20115;-83
2021/03/07 02:05:33;;;;;;;16.90;9.53;;;;;;;;;;5050483;28;20032;-83
2021/03/07 02:07:59;;;;;;;20.50;8.33;;;;;;;;;;5050744;28;20467;-83
2021/03/07 02:10:31;;;;;;;14.23;8.07;;;;;;;;;;5050018;28;20083;-83
2021/03/07 02:13:00;;;;;;;15.43;8.70;;;;;;;;;;5049996;28;20051;-83
2021/03/07 02:15:26;;;;;;;18.87;8.80;;;;;;;;;;5051645;28;20025;-83
2021/03/07 02:17:51;;;;;;;16.77;8.83;;;;;;;;;;5049880;28;20013;-83
2021/03/07 02:20:18;;;;;;;15.03;8.47;;;;;;;;;;5049919;28;20147;-83
2021/03/07 02:22:44;;;;;;;15.00;8.70;;;;;;;;;;5079640;28;20021;-83
2021/03/07 02:25:11;;;;;;;16.90;8.70;;;;;;;;;;5050783;28;20032;-83
2021/03/07 02:27:36;;;;;;;17.83;8.93;;;;;;;;;;5050869;28;20447;-83
2021/03/07 02:30:06;;;;;;;13.97;8.50;;;;;;;;;;5051738;28;20040;-83
2021/03/07 02:32:32;;;;;;;18.60;8.67;;;;;;;;;;5050870;28;20461;-83
2021/03/07 02:35:01;;;;;;;14.40;8.93;;;;;;;;;;5050940;28;20460;-84
2021/03/07 02:37:27;;;;;;;18.10;9.13;;;;;;;;;;5050364;28;20025;-83
2021/03/07 02:39:53;;;;;;;17.50;9.40;;;;;;;;;;5052097;28;20071;-83
2021/03/07 02:42:20;;;;;;;14.77;8.20;;;;;;;;;;5050985;28;20096;-83
2021/03/07 02:44:57;;;;;;;16.67;8.80;;;;;;;;;;5050745;28;20028;-83
2021/03/07 02:47:23;;;;;;;16.50;9.53;;;;;;;;;;5038152;28;20017;-83
2021/03/07 02:49:49;;;;;;;15.63;9.50;;;;;;;;;;5050808;28;20029;-84
2021/03/07 02:52:15;;;;;;;17.03;10.17;;;;;;;;;;5050504;28;20027;-84
2021/03/07 02:54:41;;;;;;;18.43;9.17;;;;;;;;;;5050739;28;20017;-84
2021/03/07 02:57:07;;;;;;;15.33;9.10;;;;;;;;;;5049799;28;20404;-84
2021/03/07 02:59:34;;;;;;;16.20;9.40;;;;;;;;;;5050949;28;20028;-84
2021/03/07 03:02:01;;;;;;;21.23;10.13;;;;;;;;;;5051870;28;20560;-84
2021/03/07 03:04:26;;;;;;;17.97;9.37;;;;;;;;;;5051812;28;20044;-84
2021/03/07 03:06:52;;;;;;;18.13;10.00;;;;;;;;;;5050345;28;20040;-83
2021/03/07 03:09:18;;;;;;;18.50;10.50;;;;;;;;;;5051566;28;20032;-84
2021/03/07 03:11:43;;;;;;;20.57;11.10;;;;;;;;;;5050176;28;20036;-84
2021/03/07 03:14:11;;;;;;;21.43;9.97;;;;;;;;;;5050569;28;20017;-84
2021/03/07 03:16:37;;;;;;;17.30;9.50;;;;;;;;;;5050490;28;20352;-84
2021/03/07 03:19:05;;;;;;;17.53;9.60;;;;;;;;;;5050213;28;20106;-84
2021/03/07 03:21:30;;;;;;;16.57;8.93;;;;;;;;;;5050494;28;20396;-84
2021/03/07 03:23:56;;;;;;;19.53;9.70;;;;;;;;;;5050566;28;20029;-84
2021/03/07 03:26:23;;;;;;;17.43;10.27;;;;;;;;;;5050253;28;20033;-85
2021/03/07 03:28:48;;;;;;;18.53;9.80;;;;;;;;;;5050354;28;20033;-84
2021/03/07 03:31:13;;;;;;;26.27;11.07;;;;;;;;;;5049980;28;20079;-84
2021/03/07 03:33:38;;;;;;;20.17;9.80;;;;;;;;;;5050222;28;20483;-84
2021/03/07 03:36:04;;;;;;;19.77;10.07;;;;;;;;;;5050403;28;20120;-84
2021/03/07 03:38:38;;;;;;;18.20;10.83;;;;;;;;;;5050497;28;20013;-84
2021/03/07 03:41:04;;;;;;;22.77;11.27;;;;;;;;;;5051814;28;20024;-84
2021/03/07 03:43:29;;;;;;;24.50;11.30;;;;;;;;;;5054855;28;20017;-84
2021/03/07 03:45:56;;;;;;;18.63;10.53;;;;;;;;;;5054345;28;20021;-84
2021/03/07 03:48:22;;;;;;;18.83;9.60;;;;;;;;;;5053943;28;20056;-83
2021/03/07 03:50:47;;;;;;;21.17;9.40;;;;;;;;;;5054399;28;20048;-84
2021/03/07 03:53:14;;;;;;;20.73;10.23;;;;;;;;;;5054388;28;20452;-84
2021/03/07 03:55:41;;;;;;;23.03;10.10;;;;;;;;;;5053949;28;20349;-84
2021/03/07 03:58:07;;;;;;;19.37;11.00;;;;;;;;;;5054127;28;20040;-84
2021/03/07 04:00:33;;;;;;;20.33;10.50;;;;;;;;;;5055022;28;20029;-84
2021/03/07 04:02:58;;;;;;;20.30;10.87;;;;;;;;;;5054007;28;20030;-84
2021/03/07 04:05:25;;;;;;;18.13;10.50;;;;;;;;;;5053557;28;20039;-84
2021/03/07 04:07:50;;;;;;;19.90;10.33;;;;;;;;;;5053597;28;20068;-84
2021/03/07 04:10:17;;;;;;;24.03;10.70;;;;;;;;;;5053315;28;20185;-84
2021/03/07 04:12:43;;;;;;;18.77;10.17;;;;;;;;;;5054621;28;20435;-84
2021/03/07 04:15:09;;;;;;;19.67;10.67;;;;;;;;;;5053484;28;20048;-84
2021/03/07 04:17:34;;;;;;;25.30;11.57;;;;;;;;;;5052872;28;20032;-84
2021/03/07 04:20:01;;;;;;;22.00;11.27;;;;;;;;;;5053509;28;20438;-84
2021/03/07 04:22:26;;;;;;;22.13;11.63;;;;;;;;;;5053182;28;20049;-84
2021/03/07 04:24:51;;;;;;;24.07;12.07;;;;;;;;;;5053323;28;20532;-84
2021/03/07 04:27:17;;;;;;;24.77;12.57;;;;;;;;;;5053230;28;20437;-84
2021/03/07 04:29:43;;;;;;;22.43;12.40;;;;;;;;;;5052780;28;20116;-84
2021/03/07 04:32:08;;;;;;;25.30;12.73;;;;;;;;;;5053048;28;20111;-84
2021/03/07 04:34:34;;;;;;;22.00;11.23;;;;;;;;;;5052871;28;20108;-84
2021/03/07 04:37:00;;;;;;;26.63;11.43;;;;;;;;;;5054671;28;20025;-84
2021/03/07 04:39:25;;;;;;;18.33;11.10;;;;;;;;;;5054216;28;20044;-84
2021/03/07 04:41:50;;;;;;;21.70;11.27;;;;;;;;;;5052884;28;20033;-84
2021/03/07 04:44:16;;;;;;;22.37;10.77;;;;;;;;;;5054130;28;20020;-84
2021/03/07 04:46:41;;;;;;;18.53;11.57;;;;;;;;;;5052580;28;20013;-83
2021/03/07 04:49:06;;;;;;;27.80;12.27;;;;;;;;;;5052856;28;20029;-84
2021/03/07 04:51:31;;;;;;;25.27;12.33;;;;;;;;;;5052801;28;20048;-84
2021/03/07 04:53:57;;;;;;;24.50;12.70;;;;;;;;;;5052178;28;20017;-84
2021/03/07 04:56:22;;;;;;;21.83;11.97;;;;;;;;;;5052604;28;20033;-84
2021/03/07 04:58:48;;;;;;;20.93;12.20;;;;;;;;;;5052517;28;20039;-84
2021/03/07 05:01:13;;;;;;;24.30;12.57;;;;;;;;;;5052610;28;20029;-84
2021/03/07 05:03:38;;;;;;;21.77;12.73;;;;;;;;;;5053646;28;20024;-84
2021/03/07 05:06:03;;;;;;;26.20;12.83;;;;;;;;;;5053528;28;20100;-84
2021/03/07 05:08:29;;;;;;;25.83;12.57;;;;;;;;;;5052373;28;20029;-84
2021/03/07 05:10:55;;;;;;;24.43;13.07;;;;;;;;;;5051995;28;20021;-84
2021/03/07 05:13:20;;;;;;;25.90;12.43;;;;;;;;;;5052405;28;20094;-84
2021/03/07 05:15:46;;;;;;;26.23;11.90;;;;;;;;;;5051953;28;20104;-84
2021/03/07 05:18:11;;;;;;;20.53;10.83;;;;;;;;;;5053556;28;20071;-84
2021/03/07 05:20:36;;;;;;;21.00;11.67;;;;;;;;;;5052397;28;20028;-84
2021/03/07 05:23:01;;;;;;;20.10;11.53;;;;;;;;;;5051984;28;20033;-84
2021/03/07 05:25:26;;;;;;;21.40;10.90;;;;;;;;;;5052160;28;20028;-84
2021/03/07 05:27:52;;;;;;;23.53;11.47;;;;;;;;;;5052003;28;20025;-84
2021/03/07 05:30:17;;;;;;;25.70;11.37;;;;;;;;;;5051721;28;20396;-84
2021/03/07 05:32:43;;;;;;;19.53;11.70;;;;;;;;;;5051701;28;20049;-84
2021/03/07 05:35:08;;;;;;;21.27;11.07;;;;;;;;;;5051768;28;20017;-84
2021/03/07 05:37:33;;;;;;;21.23;12.43;;;;;;;;;;5052976;28;20028;-84
2021/03/07 05:39:58;;;;;;;27.07;11.57;;;;;;;;;;5051779;28;20380;-84
2021/03/07 05:42:24;;;;;;;26.03;12.30;;;;;;;;;;5051545;28;20032;-84
2021/03/07 05:44:49;;;;;;;21.47;11.50;;;;;;;;;;5051569;28;20033;-84
2021/03/07 05:47:17;;;;;;;22.27;11.40;;;;;;;;;;5053003;28;20025;-84
2021/03/07 05:49:42;;;;;;;19.27;10.93;;;;;;;;;;5051621;28;20056;-84
2021/03/07 05:52:08;;;;;;;24.27;11.83;;;;;;;;;;5051503;28;20044;-84
2021/03/07 05:54:33;;;;;;;20.20;11.53;;;;;;;;;;5051373;28;20017;-84
2021/03/07 05:56:59;;;;;;;24.93;11.47;;;;;;;;;;5051860;28;20024;-84
2021/03/07 05:59:24;;;;;;;20.97;11.50;;;;;;;;;;5051159;28;20032;-84
2021/03/07 06:01:50;;;;;;;21.40;11.90;;;;;;;;;;5052513;28;20029;-84
2021/03/07 06:04:15;;;;;;;24.77;12.17;;;;;;;;;;5051260;28;20021;-84
2021/03/07 06:06:40;;;;;;;21.37;11.90;;;;;;;;;;5050463;28;20479;-84
2021/03/07 06:09:18;;;;;;;22.40;11.87;;;;;;;;;;5050956;28;20023;-84
2021/03/07 06:11:45;;;;;;;21.57;12.13;;;;;;;;;;5051213;28;20028;-84
2021/03/07 06:14:17;;;;;;;23.90;11.93;;;;;;;;;;5051034;28;20017;-84
2021/03/07 06:16:56;;;;;;;22.85;12.55;;;;;;;;;;5051182;28;20484;-84
2021/03/07 06:19:21;;;;;;;25.30;12.80;;;;;;;;;;5050934;28;20097;-84
2021/03/07 06:21:46;;;;;;;24.67;13.20;;;;;;;;;;5052307;28;20020;-84
2021/03/07 06:24:31;;;;;;;25.77;12.73;;;;;;;;;;5050985;28;20177;-84
2021/03/07 06:27:03;;;;;;;28.40;14.27;;;;;;;;;;5045094;28;20496;-84
2021/03/07 06:29:28;;;;;;;26.80;13.60;;;;;;;;;;5050764;28;20472;-84
2021/03/07 06:31:54;;;;;;;27.37;14.27;;;;;;;;;;5051045;28;20021;-84
2021/03/07 06:34:19;;;;;;;24.77;13.27;;;;;;;;;;5052154;28;20017;-84
2021/03/07 06:36:44;;;;;;;27.57;14.40;;;;;;;;;;5050669;28;20538;-84
2021/03/07 06:39:10;;;;;;;27.50;14.03;;;;;;;;;;5052174;28;20027;-84
2021/03/07 06:41:35;;;;;;;31.33;13.17;;;;;;;;;;5050909;28;20058;-84
2021/03/07 06:44:08;;;;;;;29.50;13.07;;;;;;;;;;5050645;28;20041;-84
2021/03/07 06:46:35;;;;;;;25.90;13.33;;;;;;;;;;5052057;28;20411;-84
2021/03/07 06:49:00;;;;;;;26.70;13.17;;;;;;;;;;5050627;28;20033;-84
2021/03/07 06:51:33;;;;;;;30.83;13.73;;;;;;;;;;5050759;28;20017;-84
2021/03/07 06:53:58;;;;;;;;;;;;;;;;;;5050802;28;20135;-84
2021/03/07 06:56:53;;;;;;;36.70;17.90;;;;;;;;;;5050673;28;20371;-84
2021/03/07 06:59:18;;;;;;;34.30;16.50;;;;;;;;;;5062615;28;20022;-84
2021/03/07 07:01:44;;;;;;;39.50;16.70;;;;;;;;;;5048677;28;20423;-84
2021/03/07 07:04:10;;;;;;;83.90;38.87;;;;;;;;;;5050402;28;20465;-84
2021/03/07 07:06:38;;;;;;;64.87;30.27;;;;;;;;;;5051823;28;20054;-85
2021/03/07 07:09:04;;;;;;;53.80;25.10;;;;;;;;;;5051693;28;20033;-84
2021/03/07 07:11:40;;;;;;;53.63;25.50;;;;;;;;;;5050597;28;20024;-84
2021/03/07 07:14:05;;;;;;;54.97;25.80;;;;;;;;;;5050155;28;20021;-84
2021/03/07 07:16:32;;;;;;;50.60;23.93;;;;;;;;;;5050715;28;20384;-84
2021/03/07 07:18:57;;;;;;;52.90;24.70;;;;;;;;;;5053980;28;20106;-84
2021/03/07 07:21:23;;;;;;;46.77;22.63;;;;;;;;;;5054500;28;20424;-84
2021/03/07 07:23:48;;;;;;;53.10;23.03;;;;;;;;;;5055795;28;20021;-84
2021/03/07 07:26:13;;;;;;;49.37;20.60;;;;;;;;;;5054022;28;20533;-84
2021/03/07 07:28:38;;;;;;;45.20;21.00;;;;;;;;;;5054250;28;20021;-84
2021/03/07 07:31:12;;;;;;;50.57;19.17;;;;;;;;;;5054022;28;20029;-84
2021/03/07 07:33:41;;;;;;;66.37;20.30;;;;;;;;;;5046973;28;20009;-84
2021/03/07 07:36:08;;;;;;;67.30;21.03;;;;;;;;;;5055309;28;20379;-84
2021/03/07 07:38:33;;;;;;;79.60;23.70;;;;;;;;;;5054322;28;20071;-84
2021/03/07 07:40:59;;;;;;;82.50;26.20;;;;;;;;;;5053991;28;20025;-83
2021/03/07 07:43:24;;;;;;;67.83;22.00;;;;;;;;;;5053818;28;20063;-83
2021/03/07 07:46:09;;;;;;;73.60;21.17;;;;;;;;;;5053862;28;20028;-83
2021/03/07 07:48:34;;;;;;;72.77;21.97;;;;;;;;;;5053595;28;20071;-83
2021/03/07 07:51:19;;;;;;;84.93;23.27;;;;;;;;;;5053940;28;20464;-83
2021/03/07 07:53:44;;;;;;;73.27;21.93;;;;;;;;;;5084606;28;20066;-83
2021/03/07 07:56:29;;;;;;;63.90;19.97;;;;;;;;;;5053768;28;20107;-83
2021/03/07 07:58:55;;;;;;;67.80;21.20;;;;;;;;;;5053436;28;20025;-83
2021/03/07 08:01:40;;;;;;;68.87;20.67;;;;;;;;;;5053582;28;20171;-83
2021/03/07 08:04:25;;;;;;;55.23;19.73;;;;;;;;;;5053179;28;20025;-83
2021/03/07 08:06:50;;;;;;;53.60;18.13;;;;;;;;;;5053077;28;20107;-83
2021/03/07 08:09:34;;;;;;;43.63;19.20;;;;;;;;;;5052195;28;20144;-83
2021/03/07 08:11:59;;;;;;;51.23;19.40;;;;;;;;;;5051131;28;20025;-82
2021/03/07 08:14:34;;;;;;;56.43;20.63;;;;;;;;;;5052181;28;20025;-82
2021/03/07 08:16:59;;;;;;;49.27;17.67;;;;;;;;;;5051449;28;20021;-82
2021/03/07 08:19:43;;;;;;;46.50;18.47;;;;;;;;;;5053147;28;20028;-83
2021/03/07 08:22:09;;;;;;;49.53;20.43;;;;;;;;;;5052849;28;20021;-82
2021/03/07 08:24:46;;;;;;;52.73;19.40;;;;;;;;;;5052597;28;20027;-82
2021/03/07 08:27:29;;;;;;;47.57;19.33;;;;;;;;;;5053266;28;20031;-82
2021/03/07 08:29:55;;;;;;;54.33;19.47;;;;;;;;;;5077773;28;20116;-82
2021/03/07 08:32:39;;;;;;;46.80;17.53;;;;;;;;;;5053053;28;20094;-82
2021/03/07 08:35:15;;;;;;;51.67;20.37;;;;;;;;;;5045541;28;20075;-82
2021/03/07 08:37:41;;;;;;;52.07;19.93;;;;;;;;;;5052659;28;20070;-82
2021/03/07 08:40:29;;;;;;;60.97;21.80;;;;;;;;;;5052566;28;20422;-82
2021/03/07 08:42:56;;;;;;;53.60;22.10;;;;;;;;;;5051986;28;20037;-82
2021/03/07 08:45:22;;;;;;;55.10;21.13;;;;;;;;;;5052607;28;20021;-82
2021/03/07 08:47:55;;;;;;;67.30;21.77;;;;;;;;;;5052568;28;20032;-82
2021/03/07 08:50:21;;;;;;;60.63;22.27;;;;;;;;;;5052291;28;20021;-82
2021/03/07 08:52:46;;;;;;;53.60;22.27;;;;;;;;;;5052304;28;20028;-83
2021/03/07 08:55:12;;;;;;;59.77;21.47;;;;;;;;;;5052454;28;20110;-82
2021/03/07 08:57:43;;;;;;;56.40;19.93;;;;;;;;;;5052487;28;20017;-82
2021/03/07 09:00:08;;;;;;;54.43;20.93;;;;;;;;;;5053579;28;20037;-82
2021/03/07 09:02:34;;;;;;;47.30;19.10;;;;;;;;;;5053373;28;20078;-82
2021/03/07 09:04:59;;;;;;;51.40;20.17;;;;;;;;;;5051923;28;20459;-82
2021/03/07 09:07:30;;;;;;;51.37;20.23;;;;;;;;;;5052165;28;20527;-82
2021/03/07 09:09:56;;;;;;;46.63;18.13;;;;;;;;;;5053458;28;20476;-82
2021/03/07 09:12:22;;;;;;;48.10;21.07;;;;;;;;;;5052032;28;20094;-82
2021/03/07 09:14:48;;;;;;;49.87;20.17;;;;;;;;;;5052333;28;20047;-82
2021/03/07 09:17:20;;;;;;;56.77;20.57;;;;;;;;;;5051205;28;20020;-82
2021/03/07 09:19:46;;;;;;;51.07;19.17;;;;;;;;;;5051576;28;20514;-82
2021/03/07 09:22:11;;;;;;;47.67;17.90;;;;;;;;;;5051649;28;20048;-82
2021/03/07 09:24:37;;;;;;;43.67;18.13;;;;;;;;;;5051333;28;20024;-82
2021/03/07 09:27:11;;;;;;;54.50;21.07;;;;;;;;;;5051947;28;20561;-82
2021/03/07 09:29:50;;;;;;;46.00;18.00;;;;;;;;;;5049468;28;20025;-82
2021/03/07 09:32:41;;;;;;;37.60;16.90;;;;;;;;;;5051685;28;20380;-81
2021/03/07 09:35:25;;;;;;;34.23;15.50;;;;;;;;;;5048228;28;20028;-82
2021/03/07 09:37:56;;;;;;;34.30;15.40;;;;;;;;;;5051624;28;20025;-82
2021/03/07 09:40:24;;;;;;;31.60;15.93;;;;;;;;;;5050971;28;20029;-81
2021/03/07 09:42:53;;;;;;;33.47;13.63;;;;;;;;;;5051261;28;20025;-81
2021/03/07 09:45:18;;;;;;;29.80;14.23;;;;;;;;;;5051239;28;20119;-81
2021/03/07 09:47:44;;;;;;;31.77;16.10;;;;;;;;;;5051490;28;20037;-81
2021/03/07 09:50:09;;;;;;;37.73;16.70;;;;;;;;;;5050857;28;20052;-81
2021/03/07 09:52:34;;;;;;;33.43;17.00;;;;;;;;;;5050946;28;20048;-81
2021/03/07 09:55:00;;;;;;;32.63;16.10;;;;;;;;;;5050948;28;20509;-81
2021/03/07 09:57:25;;;;;;;37.63;17.13;;;;;;;;;;5050723;28;20028;-81
2021/03/07 09:59:52;;;;;;;36.60;16.57;;;;;;;;;;5052027;28;20104;-81
2021/03/07 10:02:17;;;;;;;36.97;17.67;;;;;;;;;;5050149;28;20150;-81
2021/03/07 10:04:47;;;;;;;34.83;16.40;;;;;;;;;;5050742;28;20029;-81
2021/03/07 10:07:17;;;;;;;35.40;16.50;;;;;;;;;;5050967;28;20024;-81
2021/03/07 10:10:01;;;;;;;32.53;15.40;;;;;;;;;;5051329;28;20025;-81
2021/03/07 10:12:43;;;;;;;40.30;16.00;;;;;;;;;;5048956;28;20047;-81
2021/03/07 10:15:10;;;;;;;37.75;15.95;;;;;;;;;;5050524;28;20029;-81
2021/03/07 10:17:36;;;;;;;30.57;15.60;;;;;;;;;;5044173;28;20025;-81
2021/03/07 10:20:03;;;;;;;31.77;15.00;;;;;;;;;;5046878;28;20345;-81
2021/03/07 10:22:34;;;;;;;34.33;16.03;;;;;;;;;;5074477;28;20025;-81
2021/03/07 10:25:00;;;;;;;34.17;16.57;;;;;;;;;;5045477;28;20123;-81
2021/03/07 10:27:29;;;;;;;29.70;15.33;;;;;;;;;;5049719;28;20151;-81
2021/03/07 10:29:54;;;;;;;30.87;15.20;;;;;;;;;;5075373;28;20139;-80
2021/03/07 10:32:20;;;;;;;32.40;15.67;;;;;;;;;;5049757;28;20065;-81
2021/03/07 10:34:46;;;;;;;34.77;17.10;;;;;;;;;;5045617;28;20384;-81
2021/03/07 10:37:30;;;;;;;35.40;16.73;;;;;;;;;;5048579;28;20427;-80
2021/03/07 10:39:55;;;;;;;33.30;15.93;;;;;;;;;;5049608;28;20601;-81
2021/03/07 10:42:20;;;;;;;40.27;17.67;;;;;;;;;;5050352;28;20024;-81
2021/03/07 10:44:45;;;;;;;36.03;16.63;;;;;;;;;;5050748;28;20075;-81
2021/03/07 10:47:15;;;;;;;39.13;17.43;;;;;;;;;;5049281;28;20024;-81
2021/03/07 10:49:40;;;;;;;34.90;15.67;;;;;;;;;;5051404;28;20029;-81
2021/03/07 10:52:05;;;;;;;39.87;16.37;;;;;;;;;;5050980;28;20017;-81
2021/03/07 10:54:31;;;;;;;32.73;16.70;;;;;;;;;;5053865;28;20016;-79
2021/03/07 10:56:56;;;;;;;43.90;17.07;;;;;;;;;;5053041;28;20021;-79
2021/03/07 10:59:21;;;;;;;34.17;15.60;;;;;;;;;;5068011;28;20036;-79
2021/03/07 11:01:46;;;;;;;36.77;14.90;;;;;;;;;;5047173;28;20522;-79
2021/03/07 11:04:11;;;;;;;18.53;7.07;;;;;;;;;;5051917;28;20020;-78
2021/03/07 11:06:37;;;;;;;12.17;6.53;;;;;;;;;;5053756;28;20108;-79
2021/03/07 11:09:03;;;;;;;12.67;6.23;;;;;;;;;;5055814;28;20021;-79
2021/03/07 11:11:28;;;;;;;13.33;6.67;;;;;;;;;;5049556;28;20024;-79
2021/03/07 11:13:53;;;;;;;17.50;6.80;;;;;;;;;;5050918;28;20036;-79
2021/03/07 11:16:18;;;;;;;11.82;6.50;;;;;;;;;;5051190;28;20021;-79
2021/03/07 11:18:43;;;;;;;13.82;7.97;;;;;;;;;;5053776;28;20025;-79
2021/03/07 11:21:09;;;;;;;24.75;15.43;;;;;;;;;;5054564;28;20562;-79
2021/03/07 11:23:34;;;;;;;21.87;9.60;;;;;;;;;;5053302;28;20028;-79
2021/03/07 11:26:00;;;;;;;14.80;8.07;;;;;;;;;;5053890;28;20016;-79
2021/03/07 11:28:25;;;;;;;13.23;8.60;;;;;;;;;;5054436;28;20025;-79
2021/03/07 11:30:50;;;;;;;11.53;6.73;;;;;;;;;;5051980;28;20024;-79
2021/03/07 11:33:16;;;;;;;13.53;6.20;;;;;;;;;;5052744;28;20023;-79
2021/03/07 11:35:41;;;;;;;9.70;5.43;;;;;;;;;;5052771;28;20032;-79
2021/03/07 11:38:06;;;;;;;12.48;5.07;;;;;;;;;;5052901;28;20541;-78
2021/03/07 11:40:31;;;;;;;7.83;4.23;;;;;;;;;;5053025;28;20021;-79
2021/03/07 11:42:57;;;;;;;8.07;4.13;;;;;;;;;;5053012;28;20029;-79
2021/03/07 11:45:22;;;;;;;8.00;4.50;;;;;;;;;;5052327;28;20025;-80
2021/03/07 11:47:48;;;;;;;9.10;4.15;;;;;;;;;;5053864;28;20037;-79
2021/03/07 11:50:14;;;;;;;8.50;3.80;;;;;;;;;;5052508;28;20028;-79
2021/03/07 11:52:39;;;;;;;10.80;4.70;;;;;;;;;;5051613;28;20355;-79
2021/03/07 11:55:05;;;;;;;6.85;4.18;;;;;;;;;;5051157;28;20115;-79
2021/03/07 11:57:30;;;;;;;8.45;3.88;;;;;;;;;;5052916;28;20122;-79
2021/03/07 11:59:55;;;;;;;7.07;3.67;;;;;;;;;;5052914;28;20029;-79
2021/03/07 12:02:20;;;;;;;8.98;4.10;;;;;;;;;;5052663;28;20113;-79
2021/03/07 12:04:46;;;;;;;6.72;4.25;;;;;;;;;;5052699;28;20407;-79
2021/03/07 12:07:11;;;;;;;14.20;4.93;;;;;;;;;;5050649;28;20111;-79
2021/03/07 12:09:36;;;;;;;8.00;3.80;;;;;;;;;;5054079;28;20368;-79
2021/03/07 12:12:01;;;;;;;8.83;4.50;;;;;;;;;;5053327;28;20048;-79
2021/03/07 12:14:27;;;;;;;9.27;4.72;;;;;;;;;;5048581;28;20017;-79
2021/03/07 12:16:53;;;;;;;7.47;4.03;;;;;;;;;;5053364;28;20021;-79
2021/03/07 12:19:19;;;;;;;7.75;4.20;;;;;;;;;;5053861;28;20049;-79
2021/03/07 12:21:44;;;;;;;7.25;3.83;;;;;;;;;;5053963;28;20071;-80
2021/03/07 12:24:09;;;;;;;10.63;4.10;;;;;;;;;;5052338;28;20021;-79
2021/03/07 12:26:35;;;;;;;10.00;4.65;;;;;;;;;;5052915;28;20017;-79
2021/03/07 12:29:00;;;;;;;7.45;4.68;;;;;;;;;;5052860;28;20028;-79
2021/03/07 12:31:26;;;;;;;10.05;5.32;;;;;;;;;;5052570;28;20013;-79
2021/03/07 12:33:51;;;;;;;9.73;5.70;;;;;;;;;;5052145;28;20017;-79
2021/03/07 12:36:16;;;;;;;10.07;4.90;;;;;;;;;;5053826;28;20013;-79
2021/03/07 12:38:41;;;;;;;7.83;5.00;;;;;;;;;;5052223;28;20468;-79
2021/03/07 12:41:06;;;;;;;9.35;5.82;;;;;;;;;;5051985;28;20017;-79
2021/03/07 12:43:31;;;;;;;8.27;5.60;;;;;;;;;;5053582;28;20092;-79
2021/03/07 12:45:57;;;;;;;8.82;5.03;;;;;;;;;;5052148;28;20029;-79
2021/03/07 12:48:22;;;;;;;9.52;5.53;;;;;;;;;;5052253;28;20024;-79
2021/03/07 12:50:47;;;;;;;9.55;5.38;;;;;;;;;;5053374;28;20029;-79
2021/03/07 12:53:12;;;;;;;8.63;5.25;;;;;;;;;;5053269;28;20017;-79
2021/03/07 12:55:38;;;;;;;13.02;5.07;;;;;;;;;;5051162;28;20047;-79
2021/03/07 12:58:03;;;;;;;8.48;5.70;;;;;;;;;;5050560;28;20048;-79
2021/03/07 13:00:28;;;;;;;7.10;4.93;;;;;;;;;;5053318;28;20048;-80
2021/03/07 13:02:53;;;;;;;8.73;5.07;;;;;;;;;;5053326;28;20024;-79
2021/03/07 13:05:18;;;;;;;7.55;4.78;;;;;;;;;;5053477;28;20017;-79
2021/03/07 13:07:46;;;;;;;8.63;5.18;;;;;;;;;;5050993;28;20128;-79
2021/03/07 13:10:11;;;;;;;11.13;5.35;;;;;;;;;;5053193;28;20013;-79
2021/03/07 13:12:37;;;;;;;13.88;6.35;;;;;;;;;;5051689;28;20059;-80
2021/03/07 13:15:06;;;;;;;10.80;4.75;;;;;;;;;;5051369;28;20399;-80
2021/03/07 13:17:31;;;;;;;8.05;3.70;;;;;;;;;;5051712;28;20503;-80
2021/03/07 13:19:56;;;;;;;9.15;4.85;;;;;;;;;;5051735;28;20056;-80
2021/03/07 13:22:21;;;;;;;11.40;5.35;;;;;;;;;;5051627;28;20019;-80
2021/03/07 13:24:52;;;;;;;7.40;4.57;;;;;;;;;;5053133;28;20377;-80
2021/03/07 13:27:17;;;;;;;8.73;4.78;;;;;;;;;;5050344;28;20021;-80
2021/03/07 13:29:42;;;;;;;8.02;5.03;;;;;;;;;;5050990;28;20511;-80
2021/03/07 13:32:08;;;;;;;8.90;5.53;;;;;;;;;;5050677;28;20407;-82
2021/03/07 13:34:33;;;;;;;9.68;5.47;;;;;;;;;;5052167;28;20013;-82
2021/03/07 13:36:58;;;;;;;8.70;5.20;;;;;;;;;;5053920;28;20478;-80
2021/03/07 13:39:23;;;;;;;8.13;5.53;;;;;;;;;;5051820;28;20482;-80
2021/03/07 13:41:48;;;;;;;16.50;6.03;;;;;;;;;;5051542;28;20025;-80
2021/03/07 13:44:14;;;;;;;9.57;5.00;;;;;;;;;;5050474;28;20029;-80
2021/03/07 13:46:39;;;;;;;8.90;4.60;;;;;;;;;;5052404;28;20575;-80
2021/03/07 13:49:04;;;;;;;8.40;4.88;;;;;;;;;;5052987;28;20028;-80
2021/03/07 13:51:29;;;;;;;10.35;4.78;;;;;;;;;;5051598;28;20025;-80
2021/03/07 13:53:54;;;;;;;10.40;4.80;;;;;;;;;;5051562;28;20528;-80
2021/03/07 13:56:19;;;;;;;8.77;4.47;;;;;;;;;;5052785;28;20019;-80
2021/03/07 13:58:45;;;;;;;7.03;3.87;;;;;;;;;;5052285;28;20530;-80
2021/03/07 14:01:10;;;;;;;9.03;4.27;;;;;;;;;;5051155;28;20115;-80
2021/03/07 14:03:35;;;;;;;7.83;4.10;;;;;;;;;;5052024;28;20105;-80
2021/03/07 14:06:00;;;;;;;11.75;3.72;;;;;;;;;;5051124;28;20039;-80
2021/03/07 14:08:25;;;;;;;5.38;3.22;;;;;;;;;;5051244;28;20017;-80
2021/03/07 14:10:51;;;;;;;6.47;3.67;;;;;;;;;;5051427;28;20449;-80
2021/03/07 14:13:16;;;;;;;6.17;3.93;;;;;;;;;;5050926;28;20059;-79
2021/03/07 14:15:41;;;;;;;5.70;3.40;;;;;;;;;;5051702;28;20029;-80
2021/03/07 14:18:07;;;;;;;5.30;3.20;;;;;;;;;;5050803;28;20033;-80
2021/03/07 14:20:32;;;;;;;5.47;3.45;;;;;;;;;;5049567;28;20456;-80
2021/03/07 14:22:57;;;;;;;9.00;3.92;;;;;;;;;;5051517;28;20028;-80
2021/03/07 14:25:22;;;;;;;4.77;3.33;;;;;;;;;;5051250;28;20491;-80